sensor_id;sensor_type;location;lat;lon;timestamp;P1;durP1;ratioP1;P2;durP2;ratioP2
1839;SDS011;920;48.944;9.148;2023-07-20T00:02:06;3.10;;;2.10;;
1839;SDS011;920;48.944;9.148;2023-07-20T00:04:33;3.93;;;2.60;;
1839;SDS011;920;48.944;9.148;2023-07-20T00:07:00;3.07;;;2.33;;
1839;SDS011;920;48.944;9.148;2023-07-20T00:09:26;2.90;;;2.07;;
1839;SDS011;920;48.944;9.148;2023-07-20T00:11:55;3.40;;;2.47;;
1839;SDS011;920;48.944;9.148;2023-07-20T00:14:21;3.10;;;2.20;;
1839;SDS011;920;48.944;9.148;2023-07-20T00:16:49;2.87;;;2.37;;
1839;SDS011;920;48.944;9.148;2023-07-20T00:19:20;3.80;;;2.40;;
1839;SDS011;920;48.944;9.148;2023-07-20T00:21:48;3.07;;;1.87;;
1839;SDS011;920;48.944;9.148;2023-07-20T00:24:15;3.37;;;2.33;;
1839;SDS011;920;48.944;9.148;2023-07-20T00:26:42;3.80;;;2.17;;
1839;SDS011;920;48.944;9.148;2023-07-20T00:29:10;3.53;;;1.77;;
1839;SDS011;920;48.944;9.148;2023-07-20T00:31:39;3.00;;;1.97;;
1839;SDS011;920;48.944;9.148;2023-07-20T00:34:06;2.80;;;1.97;;
1839;SDS011;920;48.944;9.148;2023-07-20T00:36:32;3.23;;;2.07;;
1839;SDS011;920;48.944;9.148;2023-07-20T00:39:02;3.50;;;2.07;;
1839;SDS011;920;48.944;9.148;2023-07-20T00:41:29;2.53;;;2.17;;
1839;SDS011;920;48.944;9.148;2023-07-20T00:43:57;3.70;;;2.00;;
1839;SDS011;920;48.944;9.148;2023-07-20T00:46:25;2.90;;;2.30;;
1839;SDS011;920;48.944;9.148;2023-07-20T00:48:52;3.10;;;1.90;;
1839;SDS011;920;48.944;9.148;2023-07-20T00:51:19;3.07;;;2.03;;
1839;SDS011;920;48.944;9.148;2023-07-20T00:53:46;3.50;;;2.33;;
1839;SDS011;920;48.944;9.148;2023-07-20T00:56:14;3.50;;;2.10;;
1839;SDS011;920;48.944;9.148;2023-07-20T00:58:41;3.77;;;2.30;;
1839;SDS011;920;48.944;9.148;2023-07-20T01:01:07;3.10;;;2.10;;
1839;SDS011;920;48.944;9.148;2023-07-20T01:03:37;3.10;;;2.03;;
1839;SDS011;920;48.944;9.148;2023-07-20T01:06:08;3.10;;;1.90;;
1839;SDS011;920;48.944;9.148;2023-07-20T01:08:40;3.00;;;2.20;;
1839;SDS011;920;48.944;9.148;2023-07-20T01:11:13;2.90;;;1.93;;
1839;SDS011;920;48.944;9.148;2023-07-20T01:13:43;3.57;;;2.20;;
1839;SDS011;920;48.944;9.148;2023-07-20T01:16:10;3.30;;;2.30;;
1839;SDS011;920;48.944;9.148;2023-07-20T01:18:38;2.90;;;2.20;;
1839;SDS011;920;48.944;9.148;2023-07-20T01:21:08;3.10;;;2.40;;
1839;SDS011;920;48.944;9.148;2023-07-20T01:23:49;3.17;;;2.30;;
1839;SDS011;920;48.944;9.148;2023-07-20T01:26:35;2.67;;;1.90;;
1839;SDS011;920;48.944;9.148;2023-07-20T01:31:51;3.20;;;2.20;;
1839;SDS011;920;48.944;9.148;2023-07-20T01:34:18;3.13;;;1.80;;
1839;SDS011;920;48.944;9.148;2023-07-20T01:36:46;3.20;;;2.30;;
1839;SDS011;920;48.944;9.148;2023-07-20T01:39:15;3.57;;;2.13;;
1839;SDS011;920;48.944;9.148;2023-07-20T01:41:42;3.77;;;2.00;;
1839;SDS011;920;48.944;9.148;2023-07-20T01:44:09;3.20;;;2.00;;
1839;SDS011;920;48.944;9.148;2023-07-20T01:46:36;4.67;;;2.33;;
1839;SDS011;920;48.944;9.148;2023-07-20T01:49:04;2.80;;;2.10;;
1839;SDS011;920;48.944;9.148;2023-07-20T01:51:31;3.30;;;1.70;;
1839;SDS011;920;48.944;9.148;2023-07-20T01:53:58;2.47;;;1.83;;
1839;SDS011;920;48.944;9.148;2023-07-20T01:56:25;3.07;;;2.37;;
1839;SDS011;920;48.944;9.148;2023-07-20T01:58:51;2.87;;;2.00;;
1839;SDS011;920;48.944;9.148;2023-07-20T02:01:18;3.37;;;2.20;;
1839;SDS011;920;48.944;9.148;2023-07-20T02:03:45;2.87;;;2.10;;
1839;SDS011;920;48.944;9.148;2023-07-20T02:06:13;3.90;;;2.10;;
1839;SDS011;920;48.944;9.148;2023-07-20T02:08:40;5.00;;;2.03;;
1839;SDS011;920;48.944;9.148;2023-07-20T02:11:07;2.93;;;2.20;;
1839;SDS011;920;48.944;9.148;2023-07-20T02:13:35;2.70;;;2.10;;
1839;SDS011;920;48.944;9.148;2023-07-20T02:16:01;3.33;;;2.20;;
1839;SDS011;920;48.944;9.148;2023-07-20T02:18:28;4.10;;;2.00;;
1839;SDS011;920;48.944;9.148;2023-07-20T02:20:55;4.10;;;1.93;;
1839;SDS011;920;48.944;9.148;2023-07-20T02:23:23;3.27;;;2.00;;
1839;SDS011;920;48.944;9.148;2023-07-20T02:25:50;3.60;;;2.30;;
1839;SDS011;920;48.944;9.148;2023-07-20T02:28:16;3.83;;;2.30;;
1839;SDS011;920;48.944;9.148;2023-07-20T02:30:43;3.20;;;2.23;;
1839;SDS011;920;48.944;9.148;2023-07-20T02:33:10;4.50;;;2.47;;
1839;SDS011;920;48.944;9.148;2023-07-20T02:35:36;3.33;;;2.30;;
1839;SDS011;920;48.944;9.148;2023-07-20T02:38:03;3.80;;;2.27;;
1839;SDS011;920;48.944;9.148;2023-07-20T02:40:33;2.60;;;1.87;;
1839;SDS011;920;48.944;9.148;2023-07-20T02:43:00;2.83;;;2.00;;
1839;SDS011;920;48.944;9.148;2023-07-20T02:45:27;2.60;;;1.87;;
1839;SDS011;920;48.944;9.148;2023-07-20T02:47:53;4.13;;;2.10;;
1839;SDS011;920;48.944;9.148;2023-07-20T02:50:20;3.03;;;1.80;;
1839;SDS011;920;48.944;9.148;2023-07-20T02:52:47;3.30;;;2.13;;
1839;SDS011;920;48.944;9.148;2023-07-20T02:55:15;4.07;;;2.37;;
1839;SDS011;920;48.944;9.148;2023-07-20T02:57:43;2.77;;;1.90;;
1839;SDS011;920;48.944;9.148;2023-07-20T03:00:11;3.20;;;2.00;;
1839;SDS011;920;48.944;9.148;2023-07-20T03:02:40;3.90;;;2.50;;
1839;SDS011;920;48.944;9.148;2023-07-20T03:05:08;3.60;;;2.27;;
1839;SDS011;920;48.944;9.148;2023-07-20T03:07:35;4.30;;;2.00;;
1839;SDS011;920;48.944;9.148;2023-07-20T03:10:01;2.80;;;1.93;;
1839;SDS011;920;48.944;9.148;2023-07-20T03:12:29;3.00;;;2.20;;
1839;SDS011;920;48.944;9.148;2023-07-20T03:14:57;3.90;;;1.70;;
1839;SDS011;920;48.944;9.148;2023-07-20T03:17:24;3.10;;;2.20;;
1839;SDS011;920;48.944;9.148;2023-07-20T03:19:51;3.47;;;2.20;;
1839;SDS011;920;48.944;9.148;2023-07-20T03:22:18;2.53;;;1.97;;
1839;SDS011;920;48.944;9.148;2023-07-20T03:24:46;3.10;;;2.00;;
1839;SDS011;920;48.944;9.148;2023-07-20T03:27:13;2.83;;;2.00;;
1839;SDS011;920;48.944;9.148;2023-07-20T03:29:40;3.80;;;2.00;;
1839;SDS011;920;48.944;9.148;2023-07-20T03:32:08;3.43;;;2.37;;
1839;SDS011;920;48.944;9.148;2023-07-20T03:34:35;3.63;;;2.10;;
1839;SDS011;920;48.944;9.148;2023-07-20T03:37:02;3.43;;;2.40;;
1839;SDS011;920;48.944;9.148;2023-07-20T03:39:29;2.87;;;2.40;;
1839;SDS011;920;48.944;9.148;2023-07-20T03:41:57;3.90;;;2.37;;
1839;SDS011;920;48.944;9.148;2023-07-20T03:44:24;3.87;;;2.70;;
1839;SDS011;920;48.944;9.148;2023-07-20T03:46:50;4.80;;;2.47;;
1839;SDS011;920;48.944;9.148;2023-07-20T03:49:18;4.07;;;2.53;;
1839;SDS011;920;48.944;9.148;2023-07-20T03:51:45;3.60;;;2.10;;
1839;SDS011;920;48.944;9.148;2023-07-20T03:54:12;3.80;;;2.47;;
1839;SDS011;920;48.944;9.148;2023-07-20T03:56:39;3.57;;;2.30;;
1839;SDS011;920;48.944;9.148;2023-07-20T03:59:05;5.93;;;2.60;;
1839;SDS011;920;48.944;9.148;2023-07-20T04:01:32;5.93;;;2.87;;
1839;SDS011;920;48.944;9.148;2023-07-20T04:04:02;4.60;;;2.50;;
1839;SDS011;920;48.944;9.148;2023-07-20T04:06:32;2.90;;;2.27;;
1839;SDS011;920;48.944;9.148;2023-07-20T04:08:58;3.20;;;2.20;;
1839;SDS011;920;48.944;9.148;2023-07-20T04:11:25;4.90;;;2.50;;
1839;SDS011;920;48.944;9.148;2023-07-20T04:13:52;4.10;;;2.50;;
1839;SDS011;920;48.944;9.148;2023-07-20T04:16:19;3.40;;;2.53;;
1839;SDS011;920;48.944;9.148;2023-07-20T04:18:46;3.90;;;2.53;;
1839;SDS011;920;48.944;9.148;2023-07-20T04:21:13;3.10;;;2.20;;
1839;SDS011;920;48.944;9.148;2023-07-20T04:23:41;3.30;;;2.53;;
1839;SDS011;920;48.944;9.148;2023-07-20T04:26:08;3.13;;;2.43;;
1839;SDS011;920;48.944;9.148;2023-07-20T04:28:35;3.33;;;2.60;;
1839;SDS011;920;48.944;9.148;2023-07-20T04:31:11;4.20;;;2.60;;
1839;SDS011;920;48.944;9.148;2023-07-20T04:33:38;3.27;;;1.90;;
1839;SDS011;920;48.944;9.148;2023-07-20T04:36:05;2.70;;;2.00;;
1839;SDS011;920;48.944;9.148;2023-07-20T04:38:34;3.47;;;2.27;;
1839;SDS011;920;48.944;9.148;2023-07-20T04:41:10;3.50;;;2.37;;
1839;SDS011;920;48.944;9.148;2023-07-20T04:43:41;3.77;;;2.57;;
1839;SDS011;920;48.944;9.148;2023-07-20T04:46:08;3.00;;;2.27;;
1839;SDS011;920;48.944;9.148;2023-07-20T04:48:35;3.43;;;2.10;;
1839;SDS011;920;48.944;9.148;2023-07-20T04:51:02;3.20;;;2.60;;
1839;SDS011;920;48.944;9.148;2023-07-20T04:53:29;4.50;;;2.50;;
1839;SDS011;920;48.944;9.148;2023-07-20T04:55:57;3.93;;;2.80;;
1839;SDS011;920;48.944;9.148;2023-07-20T04:58:26;4.60;;;2.90;;
1839;SDS011;920;48.944;9.148;2023-07-20T05:00:54;5.83;;;2.90;;
1839;SDS011;920;48.944;9.148;2023-07-20T05:03:21;3.77;;;2.40;;
1839;SDS011;920;48.944;9.148;2023-07-20T05:05:48;4.47;;;2.27;;
1839;SDS011;920;48.944;9.148;2023-07-20T05:08:14;4.07;;;2.70;;
1839;SDS011;920;48.944;9.148;2023-07-20T05:10:42;3.67;;;2.50;;
1839;SDS011;920;48.944;9.148;2023-07-20T05:13:08;3.70;;;2.40;;
1839;SDS011;920;48.944;9.148;2023-07-20T05:15:37;5.73;;;2.50;;
1839;SDS011;920;48.944;9.148;2023-07-20T05:18:05;3.13;;;2.57;;
1839;SDS011;920;48.944;9.148;2023-07-20T05:20:31;4.90;;;2.50;;
1839;SDS011;920;48.944;9.148;2023-07-20T05:22:59;3.47;;;2.10;;
1839;SDS011;920;48.944;9.148;2023-07-20T05:25:27;5.10;;;2.60;;
1839;SDS011;920;48.944;9.148;2023-07-20T05:27:53;3.37;;;1.93;;
1839;SDS011;920;48.944;9.148;2023-07-20T05:30:21;4.53;;;2.30;;
1839;SDS011;920;48.944;9.148;2023-07-20T05:32:49;2.70;;;2.00;;
1839;SDS011;920;48.944;9.148;2023-07-20T05:35:17;3.37;;;2.30;;
1839;SDS011;920;48.944;9.148;2023-07-20T05:37:44;2.90;;;2.20;;
1839;SDS011;920;48.944;9.148;2023-07-20T05:40:11;4.10;;;2.20;;
1839;SDS011;920;48.944;9.148;2023-07-20T05:42:38;3.20;;;2.30;;
1839;SDS011;920;48.944;9.148;2023-07-20T05:45:05;3.90;;;2.23;;
1839;SDS011;920;48.944;9.148;2023-07-20T05:47:33;3.40;;;1.93;;
1839;SDS011;920;48.944;9.148;2023-07-20T05:50:01;4.00;;;2.20;;
1839;SDS011;920;48.944;9.148;2023-07-20T05:52:28;3.17;;;1.80;;
1839;SDS011;920;48.944;9.148;2023-07-20T05:54:55;2.80;;;2.30;;
1839;SDS011;920;48.944;9.148;2023-07-20T05:57:24;3.43;;;2.00;;
1839;SDS011;920;48.944;9.148;2023-07-20T05:59:51;3.40;;;2.30;;
1839;SDS011;920;48.944;9.148;2023-07-20T06:02:18;3.40;;;2.17;;
1839;SDS011;920;48.944;9.148;2023-07-20T06:04:44;4.07;;;1.80;;
1839;SDS011;920;48.944;9.148;2023-07-20T06:07:12;3.00;;;2.10;;
1839;SDS011;920;48.944;9.148;2023-07-20T06:09:39;3.40;;;2.10;;
1839;SDS011;920;48.944;9.148;2023-07-20T06:12:06;4.20;;;2.40;;
1839;SDS011;920;48.944;9.148;2023-07-20T06:14:34;5.13;;;2.30;;
1839;SDS011;920;48.944;9.148;2023-07-20T06:17:01;3.80;;;2.17;;
1839;SDS011;920;48.944;9.148;2023-07-20T06:19:27;2.80;;;2.00;;
1839;SDS011;920;48.944;9.148;2023-07-20T06:21:54;2.73;;;2.00;;
1839;SDS011;920;48.944;9.148;2023-07-20T06:24:22;3.87;;;2.00;;
1839;SDS011;920;48.944;9.148;2023-07-20T06:26:49;3.93;;;2.10;;
1839;SDS011;920;48.944;9.148;2023-07-20T06:29:15;3.53;;;2.00;;
1839;SDS011;920;48.944;9.148;2023-07-20T06:31:42;3.73;;;2.17;;
1839;SDS011;920;48.944;9.148;2023-07-20T06:34:09;3.50;;;2.00;;
1839;SDS011;920;48.944;9.148;2023-07-20T06:36:36;4.40;;;2.10;;
1839;SDS011;920;48.944;9.148;2023-07-20T06:39:03;3.00;;;1.80;;
1839;SDS011;920;48.944;9.148;2023-07-20T06:41:31;3.10;;;1.87;;
1839;SDS011;920;48.944;9.148;2023-07-20T06:43:58;3.40;;;2.00;;
1839;SDS011;920;48.944;9.148;2023-07-20T06:46:25;3.43;;;1.93;;
1839;SDS011;920;48.944;9.148;2023-07-20T06:48:52;3.43;;;2.07;;
1839;SDS011;920;48.944;9.148;2023-07-20T06:51:18;2.70;;;1.50;;
1839;SDS011;920;48.944;9.148;2023-07-20T06:53:45;2.90;;;2.07;;
1839;SDS011;920;48.944;9.148;2023-07-20T06:56:12;2.87;;;1.90;;
1839;SDS011;920;48.944;9.148;2023-07-20T06:58:40;2.73;;;1.83;;
1839;SDS011;920;48.944;9.148;2023-07-20T07:01:07;3.33;;;2.10;;
1839;SDS011;920;48.944;9.148;2023-07-20T07:03:33;4.93;;;1.53;;
1839;SDS011;920;48.944;9.148;2023-07-20T07:06:02;3.40;;;2.00;;
1839;SDS011;920;48.944;9.148;2023-07-20T07:08:29;2.83;;;1.50;;
1839;SDS011;920;48.944;9.148;2023-07-20T07:10:55;4.20;;;2.00;;
1839;SDS011;920;48.944;9.148;2023-07-20T07:13:22;2.30;;;1.43;;
1839;SDS011;920;48.944;9.148;2023-07-20T07:15:51;2.30;;;1.50;;
1839;SDS011;920;48.944;9.148;2023-07-20T07:18:18;2.70;;;1.57;;
1839;SDS011;920;48.944;9.148;2023-07-20T07:20:51;3.30;;;1.93;;
1839;SDS011;920;48.944;9.148;2023-07-20T07:23:18;2.60;;;1.97;;
1839;SDS011;920;48.944;9.148;2023-07-20T07:25:45;3.03;;;1.53;;
1839;SDS011;920;48.944;9.148;2023-07-20T07:28:12;2.60;;;1.50;;
1839;SDS011;920;48.944;9.148;2023-07-20T07:30:38;2.27;;;1.57;;
1839;SDS011;920;48.944;9.148;2023-07-20T07:33:06;3.33;;;1.67;;
1839;SDS011;920;48.944;9.148;2023-07-20T07:35:33;2.53;;;1.57;;
1839;SDS011;920;48.944;9.148;2023-07-20T07:38:00;2.30;;;1.60;;
1839;SDS011;920;48.944;9.148;2023-07-20T07:40:27;3.80;;;2.17;;
1839;SDS011;920;48.944;9.148;2023-07-20T07:42:53;3.90;;;1.77;;
1839;SDS011;920;48.944;9.148;2023-07-20T07:45:20;3.50;;;1.83;;
1839;SDS011;920;48.944;9.148;2023-07-20T07:47:47;4.83;;;2.10;;
1839;SDS011;920;48.944;9.148;2023-07-20T07:50:15;4.30;;;2.40;;
1839;SDS011;920;48.944;9.148;2023-07-20T07:52:41;3.33;;;1.87;;
1839;SDS011;920;48.944;9.148;2023-07-20T07:55:08;3.53;;;1.80;;
1839;SDS011;920;48.944;9.148;2023-07-20T07:57:35;2.60;;;2.00;;
1839;SDS011;920;48.944;9.148;2023-07-20T08:00:02;3.60;;;1.90;;
1839;SDS011;920;48.944;9.148;2023-07-20T08:02:30;2.83;;;1.70;;
1839;SDS011;920;48.944;9.148;2023-07-20T08:04:57;3.00;;;2.00;;
1839;SDS011;920;48.944;9.148;2023-07-20T08:07:25;9.53;;;2.00;;
1839;SDS011;920;48.944;9.148;2023-07-20T08:09:51;2.67;;;2.20;;
1839;SDS011;920;48.944;9.148;2023-07-20T08:12:18;2.77;;;1.93;;
1839;SDS011;920;48.944;9.148;2023-07-20T08:14:45;2.30;;;1.70;;
1839;SDS011;920;48.944;9.148;2023-07-20T08:17:12;3.40;;;2.17;;
1839;SDS011;920;48.944;9.148;2023-07-20T08:19:38;4.00;;;2.13;;
1839;SDS011;920;48.944;9.148;2023-07-20T08:22:06;3.30;;;2.10;;
1839;SDS011;920;48.944;9.148;2023-07-20T08:24:35;3.50;;;1.97;;
1839;SDS011;920;48.944;9.148;2023-07-20T08:27:06;2.43;;;1.63;;
1839;SDS011;920;48.944;9.148;2023-07-20T08:29:33;3.90;;;2.07;;
1839;SDS011;920;48.944;9.148;2023-07-20T08:32:00;3.30;;;1.70;;
1839;SDS011;920;48.944;9.148;2023-07-20T08:34:26;5.80;;;2.10;;
1839;SDS011;920;48.944;9.148;2023-07-20T08:36:53;4.10;;;2.27;;
1839;SDS011;920;48.944;9.148;2023-07-20T08:39:20;4.50;;;2.30;;
1839;SDS011;920;48.944;9.148;2023-07-20T08:41:49;3.40;;;2.00;;
1839;SDS011;920;48.944;9.148;2023-07-20T08:44:16;4.23;;;2.30;;
1839;SDS011;920;48.944;9.148;2023-07-20T08:46:43;3.00;;;2.00;;
1839;SDS011;920;48.944;9.148;2023-07-20T08:49:10;2.50;;;2.00;;
1839;SDS011;920;48.944;9.148;2023-07-20T08:51:37;2.50;;;1.90;;
1839;SDS011;920;48.944;9.148;2023-07-20T08:54:05;3.17;;;2.00;;
1839;SDS011;920;48.944;9.148;2023-07-20T08:56:32;3.80;;;2.20;;
1839;SDS011;920;48.944;9.148;2023-07-20T08:59:01;2.90;;;1.67;;
1839;SDS011;920;48.944;9.148;2023-07-20T09:01:28;4.40;;;1.80;;
1839;SDS011;920;48.944;9.148;2023-07-20T09:03:55;4.20;;;2.13;;
1839;SDS011;920;48.944;9.148;2023-07-20T09:06:22;3.37;;;2.00;;
1839;SDS011;920;48.944;9.148;2023-07-20T09:08:48;3.80;;;1.87;;
1839;SDS011;920;48.944;9.148;2023-07-20T09:11:15;4.03;;;1.80;;
1839;SDS011;920;48.944;9.148;2023-07-20T09:13:42;4.30;;;1.77;;
1839;SDS011;920;48.944;9.148;2023-07-20T09:16:10;3.50;;;1.70;;
1839;SDS011;920;48.944;9.148;2023-07-20T09:18:39;3.23;;;1.23;;
1839;SDS011;920;48.944;9.148;2023-07-20T09:21:06;4.30;;;1.80;;
1839;SDS011;920;48.944;9.148;2023-07-20T09:23:33;2.40;;;1.50;;
1839;SDS011;920;48.944;9.148;2023-07-20T09:26:00;2.97;;;1.70;;
1839;SDS011;920;48.944;9.148;2023-07-20T09:28:27;4.07;;;1.80;;
1839;SDS011;920;48.944;9.148;2023-07-20T09:30:54;2.90;;;1.90;;
1839;SDS011;920;48.944;9.148;2023-07-20T09:33:24;3.53;;;1.70;;
1839;SDS011;920;48.944;9.148;2023-07-20T09:35:51;3.50;;;1.87;;
1839;SDS011;920;48.944;9.148;2023-07-20T09:38:18;2.43;;;1.60;;
1839;SDS011;920;48.944;9.148;2023-07-20T09:40:45;3.73;;;1.50;;
1839;SDS011;920;48.944;9.148;2023-07-20T09:43:12;2.53;;;1.40;;
1839;SDS011;920;48.944;9.148;2023-07-20T09:45:39;2.57;;;1.70;;
1839;SDS011;920;48.944;9.148;2023-07-20T09:48:08;2.50;;;1.50;;
1839;SDS011;920;48.944;9.148;2023-07-20T09:50:40;2.20;;;1.40;;
1839;SDS011;920;48.944;9.148;2023-07-20T09:53:09;3.00;;;1.60;;
1839;SDS011;920;48.944;9.148;2023-07-20T09:55:38;2.50;;;1.70;;
1839;SDS011;920;48.944;9.148;2023-07-20T09:58:06;2.33;;;1.50;;
1839;SDS011;920;48.944;9.148;2023-07-20T10:00:34;2.00;;;1.27;;
1839;SDS011;920;48.944;9.148;2023-07-20T10:03:01;2.20;;;1.47;;
1839;SDS011;920;48.944;9.148;2023-07-20T10:05:30;3.40;;;1.87;;
1839;SDS011;920;48.944;9.148;2023-07-20T10:08:01;3.50;;;1.50;;
1839;SDS011;920;48.944;9.148;2023-07-20T10:10:31;2.60;;;1.60;;
1839;SDS011;920;48.944;9.148;2023-07-20T10:13:00;3.80;;;1.50;;
1839;SDS011;920;48.944;9.148;2023-07-20T10:15:28;2.83;;;1.63;;
1839;SDS011;920;48.944;9.148;2023-07-20T10:17:57;4.70;;;1.60;;
1839;SDS011;920;48.944;9.148;2023-07-20T10:20:28;2.40;;;1.60;;
1839;SDS011;920;48.944;9.148;2023-07-20T10:22:56;2.67;;;1.60;;
1839;SDS011;920;48.944;9.148;2023-07-20T10:25:24;2.60;;;1.40;;
1839;SDS011;920;48.944;9.148;2023-07-20T10:27:51;3.13;;;1.97;;
1839;SDS011;920;48.944;9.148;2023-07-20T10:30:18;2.57;;;1.53;;
1839;SDS011;920;48.944;9.148;2023-07-20T10:32:45;2.37;;;1.50;;
1839;SDS011;920;48.944;9.148;2023-07-20T10:35:12;2.90;;;1.50;;
1839;SDS011;920;48.944;9.148;2023-07-20T10:37:46;2.73;;;1.50;;
1839;SDS011;920;48.944;9.148;2023-07-20T10:40:26;3.20;;;1.53;;
1839;SDS011;920;48.944;9.148;2023-07-20T10:42:57;2.67;;;1.20;;
1839;SDS011;920;48.944;9.148;2023-07-20T10:45:35;2.43;;;1.33;;
1839;SDS011;920;48.944;9.148;2023-07-20T10:48:03;2.30;;;1.40;;
1839;SDS011;920;48.944;9.148;2023-07-20T10:50:32;2.33;;;1.33;;
1839;SDS011;920;48.944;9.148;2023-07-20T10:53:09;2.37;;;1.53;;
1839;SDS011;920;48.944;9.148;2023-07-20T10:55:38;4.30;;;1.80;;
1839;SDS011;920;48.944;9.148;2023-07-20T10:58:06;3.50;;;1.83;;
1839;SDS011;920;48.944;9.148;2023-07-20T11:00:34;2.27;;;1.47;;
1839;SDS011;920;48.944;9.148;2023-07-20T11:03:00;2.40;;;1.60;;
1839;SDS011;920;48.944;9.148;2023-07-20T11:05:34;5.13;;;1.50;;
1839;SDS011;920;48.944;9.148;2023-07-20T11:08:05;2.60;;;1.67;;
1839;SDS011;920;48.944;9.148;2023-07-20T11:10:33;2.10;;;1.37;;
1839;SDS011;920;48.944;9.148;2023-07-20T11:13:20;4.03;;;1.43;;
1839;SDS011;920;48.944;9.148;2023-07-20T11:15:53;2.53;;;1.53;;
1839;SDS011;920;48.944;9.148;2023-07-20T11:18:28;2.67;;;1.33;;
1839;SDS011;920;48.944;9.148;2023-07-20T11:20:55;3.27;;;1.30;;
1839;SDS011;920;48.944;9.148;2023-07-20T11:23:22;3.33;;;1.80;;
1839;SDS011;920;48.944;9.148;2023-07-20T11:25:49;2.40;;;1.37;;
1839;SDS011;920;48.944;9.148;2023-07-20T11:28:16;2.50;;;1.40;;
1839;SDS011;920;48.944;9.148;2023-07-20T11:30:44;2.60;;;1.63;;
1839;SDS011;920;48.944;9.148;2023-07-20T11:33:11;2.87;;;1.57;;
1839;SDS011;920;48.944;9.148;2023-07-20T11:35:41;2.00;;;1.20;;
1839;SDS011;920;48.944;9.148;2023-07-20T11:38:09;2.07;;;1.47;;
1839;SDS011;920;48.944;9.148;2023-07-20T11:40:36;2.40;;;1.50;;
1839;SDS011;920;48.944;9.148;2023-07-20T11:43:02;2.60;;;1.30;;
1839;SDS011;920;48.944;9.148;2023-07-20T11:45:29;2.30;;;1.67;;
1839;SDS011;920;48.944;9.148;2023-07-20T11:47:59;2.87;;;2.00;;
1839;SDS011;920;48.944;9.148;2023-07-20T11:50:26;2.40;;;1.80;;
1839;SDS011;920;48.944;9.148;2023-07-20T11:52:53;2.87;;;1.67;;
1839;SDS011;920;48.944;9.148;2023-07-20T11:55:19;3.20;;;1.50;;
1839;SDS011;920;48.944;9.148;2023-07-20T11:58:00;2.70;;;1.67;;
1839;SDS011;920;48.944;9.148;2023-07-20T12:00:27;2.40;;;1.70;;
1839;SDS011;920;48.944;9.148;2023-07-20T12:02:54;2.87;;;1.80;;
1839;SDS011;920;48.944;9.148;2023-07-20T12:05:23;2.50;;;1.70;;
1839;SDS011;920;48.944;9.148;2023-07-20T12:07:51;2.50;;;1.50;;
1839;SDS011;920;48.944;9.148;2023-07-20T12:10:23;2.50;;;1.40;;
1839;SDS011;920;48.944;9.148;2023-07-20T12:12:50;2.20;;;1.50;;
1839;SDS011;920;48.944;9.148;2023-07-20T12:15:19;1.93;;;1.30;;
1839;SDS011;920;48.944;9.148;2023-07-20T12:17:49;2.30;;;1.60;;
1839;SDS011;920;48.944;9.148;2023-07-20T12:20:25;3.33;;;1.80;;
1839;SDS011;920;48.944;9.148;2023-07-20T12:22:55;2.70;;;1.70;;
1839;SDS011;920;48.944;9.148;2023-07-20T12:25:32;3.10;;;1.43;;
1839;SDS011;920;48.944;9.148;2023-07-20T12:28:00;3.00;;;1.40;;
1839;SDS011;920;48.944;9.148;2023-07-20T12:30:28;2.10;;;1.43;;
1839;SDS011;920;48.944;9.148;2023-07-20T12:32:54;3.17;;;1.30;;
1839;SDS011;920;48.944;9.148;2023-07-20T12:35:21;2.43;;;1.50;;
1839;SDS011;920;48.944;9.148;2023-07-20T12:37:49;2.67;;;1.60;;
1839;SDS011;920;48.944;9.148;2023-07-20T12:40:16;1.90;;;1.20;;
1839;SDS011;920;48.944;9.148;2023-07-20T12:42:43;2.27;;;1.33;;
1839;SDS011;920;48.944;9.148;2023-07-20T12:45:10;2.40;;;1.60;;
1839;SDS011;920;48.944;9.148;2023-07-20T12:47:38;1.97;;;1.20;;
1839;SDS011;920;48.944;9.148;2023-07-20T12:50:06;2.40;;;1.50;;
1839;SDS011;920;48.944;9.148;2023-07-20T12:52:35;2.20;;;1.43;;
1839;SDS011;920;48.944;9.148;2023-07-20T12:55:05;2.87;;;1.53;;
1839;SDS011;920;48.944;9.148;2023-07-20T12:57:33;2.33;;;1.57;;
1839;SDS011;920;48.944;9.148;2023-07-20T13:00:00;2.20;;;1.67;;
1839;SDS011;920;48.944;9.148;2023-07-20T13:02:26;1.83;;;1.10;;
1839;SDS011;920;48.944;9.148;2023-07-20T13:04:53;2.10;;;1.20;;
1839;SDS011;920;48.944;9.148;2023-07-20T13:07:22;2.43;;;1.40;;
1839;SDS011;920;48.944;9.148;2023-07-20T13:09:55;2.73;;;1.67;;
1839;SDS011;920;48.944;9.148;2023-07-20T13:12:24;2.40;;;1.37;;
1839;SDS011;920;48.944;9.148;2023-07-20T13:14:51;2.10;;;1.33;;
1839;SDS011;920;48.944;9.148;2023-07-20T13:17:17;3.60;;;1.50;;
1839;SDS011;920;48.944;9.148;2023-07-20T13:19:44;2.30;;;1.20;;
1839;SDS011;920;48.944;9.148;2023-07-20T13:22:11;3.77;;;1.60;;
1839;SDS011;920;48.944;9.148;2023-07-20T13:24:39;2.00;;;1.00;;
1839;SDS011;920;48.944;9.148;2023-07-20T13:27:06;2.20;;;1.40;;
1839;SDS011;920;48.944;9.148;2023-07-20T13:29:34;1.90;;;1.30;;
1839;SDS011;920;48.944;9.148;2023-07-20T13:32:01;2.80;;;1.37;;
1839;SDS011;920;48.944;9.148;2023-07-20T13:34:29;1.80;;;1.10;;
1839;SDS011;920;48.944;9.148;2023-07-20T13:36:56;2.60;;;1.50;;
1839;SDS011;920;48.944;9.148;2023-07-20T13:39:23;1.83;;;1.20;;
1839;SDS011;920;48.944;9.148;2023-07-20T13:41:52;2.00;;;1.30;;
1839;SDS011;920;48.944;9.148;2023-07-20T13:44:19;2.40;;;1.40;;
1839;SDS011;920;48.944;9.148;2023-07-20T13:46:48;2.50;;;1.37;;
1839;SDS011;920;48.944;9.148;2023-07-20T13:49:15;2.10;;;1.53;;
1839;SDS011;920;48.944;9.148;2023-07-20T13:51:41;2.57;;;1.60;;
1839;SDS011;920;48.944;9.148;2023-07-20T13:54:08;2.20;;;1.40;;
1839;SDS011;920;48.944;9.148;2023-07-20T13:56:35;2.33;;;1.43;;
1839;SDS011;920;48.944;9.148;2023-07-20T13:59:02;2.27;;;1.50;;
1839;SDS011;920;48.944;9.148;2023-07-20T14:01:29;2.23;;;1.43;;
1839;SDS011;920;48.944;9.148;2023-07-20T14:03:59;2.70;;;1.80;;
1839;SDS011;920;48.944;9.148;2023-07-20T14:06:29;3.07;;;1.50;;
1839;SDS011;920;48.944;9.148;2023-07-20T14:08:56;2.20;;;1.47;;
1839;SDS011;920;48.944;9.148;2023-07-20T14:11:23;3.40;;;1.50;;
1839;SDS011;920;48.944;9.148;2023-07-20T14:13:50;2.07;;;1.30;;
1839;SDS011;920;48.944;9.148;2023-07-20T14:16:18;2.20;;;1.47;;
1839;SDS011;920;48.944;9.148;2023-07-20T14:18:45;2.53;;;1.40;;
1839;SDS011;920;48.944;9.148;2023-07-20T14:21:15;2.80;;;1.50;;
1839;SDS011;920;48.944;9.148;2023-07-20T14:23:42;1.90;;;1.27;;
1839;SDS011;920;48.944;9.148;2023-07-20T14:26:10;2.77;;;1.60;;
1839;SDS011;920;48.944;9.148;2023-07-20T14:28:37;2.17;;;1.30;;
1839;SDS011;920;48.944;9.148;2023-07-20T14:31:04;3.57;;;1.37;;
1839;SDS011;920;48.944;9.148;2023-07-20T14:33:31;2.53;;;1.50;;
1839;SDS011;920;48.944;9.148;2023-07-20T14:35:58;3.40;;;1.60;;
1839;SDS011;920;48.944;9.148;2023-07-20T14:38:28;3.23;;;1.43;;
1839;SDS011;920;48.944;9.148;2023-07-20T14:40:54;2.80;;;1.50;;
1839;SDS011;920;48.944;9.148;2023-07-20T14:43:21;2.50;;;1.57;;
1839;SDS011;920;48.944;9.148;2023-07-20T14:45:48;3.27;;;1.60;;
1839;SDS011;920;48.944;9.148;2023-07-20T14:48:15;6.23;;;1.77;;
1839;SDS011;920;48.944;9.148;2023-07-20T14:50:41;2.80;;;1.50;;
1839;SDS011;920;48.944;9.148;2023-07-20T14:53:10;2.80;;;1.30;;
1839;SDS011;920;48.944;9.148;2023-07-20T14:55:38;2.30;;;1.67;;
1839;SDS011;920;48.944;9.148;2023-07-20T14:58:05;2.90;;;1.43;;
1839;SDS011;920;48.944;9.148;2023-07-20T15:00:32;2.00;;;1.40;;
1839;SDS011;920;48.944;9.148;2023-07-20T15:02:59;3.03;;;1.67;;
1839;SDS011;920;48.944;9.148;2023-07-20T15:05:26;1.80;;;1.23;;
1839;SDS011;920;48.944;9.148;2023-07-20T15:07:52;2.87;;;1.40;;
1839;SDS011;920;48.944;9.148;2023-07-20T15:10:19;2.20;;;1.27;;
1839;SDS011;920;48.944;9.148;2023-07-20T15:12:48;3.60;;;1.47;;
1839;SDS011;920;48.944;9.148;2023-07-20T15:15:15;3.17;;;1.20;;
1839;SDS011;920;48.944;9.148;2023-07-20T15:17:42;2.00;;;1.40;;
1839;SDS011;920;48.944;9.148;2023-07-20T15:20:11;2.23;;;1.50;;
1839;SDS011;920;48.944;9.148;2023-07-20T15:22:38;2.37;;;1.30;;
1839;SDS011;920;48.944;9.148;2023-07-20T15:25:05;2.20;;;1.30;;
1839;SDS011;920;48.944;9.148;2023-07-20T15:27:33;2.43;;;1.50;;
1839;SDS011;920;48.944;9.148;2023-07-20T15:30:02;1.90;;;1.30;;
1839;SDS011;920;48.944;9.148;2023-07-20T15:32:29;4.57;;;1.80;;
1839;SDS011;920;48.944;9.148;2023-07-20T15:34:56;2.43;;;1.57;;
1839;SDS011;920;48.944;9.148;2023-07-20T15:37:23;1.97;;;1.20;;